sensor_id;sensor_type;location;lat;lon;timestamp;P1;durP1;ratioP1;P2;durP2;ratioP2
56680;SDS011;42558;52.388;13.390;2023-01-20T00:01:43;26.03;;;16.72;;
56680;SDS011;42558;52.388;13.390;2023-01-20T00:04:18;27.93;;;16.72;;
56680;SDS011;42558;52.388;13.390;2023-01-20T00:06:48;27.17;;;17.67;;
56680;SDS011;42558;52.388;13.390;2023-01-20T00:09:17;28.50;;;15.58;;
56680;SDS011;42558;52.388;13.390;2023-01-20T00:11:47;30.40;;;15.39;;
56680;SDS011;42558;52.388;13.390;2023-01-20T00:14:17;31.92;;;17.10;;
56680;SDS011;42558;52.388;13.390;2023-01-20T00:16:47;29.07;;;16.15;;
56680;SDS011;42558;52.388;13.390;2023-01-20T00:19:17;27.17;;;16.15;;
56680;SDS011;42558;52.388;13.390;2023-01-20T00:21:47;28.50;;;17.29;;
56680;SDS011;42558;52.388;13.390;2023-01-20T00:24:17;28.88;;;15.39;;
56680;SDS011;42558;52.388;13.390;2023-01-20T00:26:47;28.12;;;17.29;;
56680;SDS011;42558;52.388;13.390;2023-01-20T00:29:17;29.83;;;15.77;;
56680;SDS011;42558;52.388;13.390;2023-01-20T00:31:47;32.49;;;17.48;;
56680;SDS011;42558;52.388;13.390;2023-01-20T00:34:16;33.44;;;17.86;;
56680;SDS011;42558;52.388;13.390;2023-01-20T00:36:46;26.79;;;15.77;;
56680;SDS011;42558;52.388;13.390;2023-01-20T00:39:16;27.36;;;16.72;;
56680;SDS011;42558;52.388;13.390;2023-01-20T00:41:46;28.50;;;15.39;;
56680;SDS011;42558;52.388;13.390;2023-01-20T00:44:16;32.30;;;15.77;;
56680;SDS011;42558;52.388;13.390;2023-01-20T00:46:46;27.74;;;15.01;;
56680;SDS011;42558;52.388;13.390;2023-01-20T00:49:16;28.69;;;15.20;;
56680;SDS011;42558;52.388;13.390;2023-01-20T00:51:46;29.07;;;13.87;;
56680;SDS011;42558;52.388;13.390;2023-01-20T00:54:16;33.06;;;16.34;;
56680;SDS011;42558;52.388;13.390;2023-01-20T00:56:46;35.15;;;15.77;;
56680;SDS011;42558;52.388;13.390;2023-01-20T00:59:16;37.24;;;15.96;;
56680;SDS011;42558;52.388;13.390;2023-01-20T01:01:45;33.82;;;15.77;;
56680;SDS011;42558;52.388;13.390;2023-01-20T01:04:15;34.39;;;16.91;;
56680;SDS011;42558;52.388;13.390;2023-01-20T01:06:45;36.48;;;16.72;;
56680;SDS011;42558;52.388;13.390;2023-01-20T01:09:15;30.78;;;14.63;;
56680;SDS011;42558;52.388;13.390;2023-01-20T01:11:45;32.68;;;15.58;;
56680;SDS011;42558;52.388;13.390;2023-01-20T01:14:15;33.06;;;16.34;;
56680;SDS011;42558;52.388;13.390;2023-01-20T01:16:45;34.96;;;16.53;;
56680;SDS011;42558;52.388;13.390;2023-01-20T01:19:17;29.83;;;15.96;;
56680;SDS011;42558;52.388;13.390;2023-01-20T01:21:47;32.49;;;17.86;;
56680;SDS011;42558;52.388;13.390;2023-01-20T01:24:17;29.26;;;16.15;;
56680;SDS011;42558;52.388;13.390;2023-01-20T01:26:47;30.59;;;16.72;;
56680;SDS011;42558;52.388;13.390;2023-01-20T01:29:17;31.73;;;17.29;;
56680;SDS011;42558;52.388;13.390;2023-01-20T01:31:47;36.29;;;18.62;;
56680;SDS011;42558;52.388;13.390;2023-01-20T01:34:16;36.10;;;18.24;;
56680;SDS011;42558;52.388;13.390;2023-01-20T01:36:45;35.53;;;18.43;;
56680;SDS011;42558;52.388;13.390;2023-01-20T01:39:13;36.86;;;19.00;;
56680;SDS011;42558;52.388;13.390;2023-01-20T01:41:40;38.95;;;19.19;;
56680;SDS011;42558;52.388;13.390;2023-01-20T01:44:11;34.77;;;17.67;;
56680;SDS011;42558;52.388;13.390;2023-01-20T01:46:42;42.94;;;18.24;;
56680;SDS011;42558;52.388;13.390;2023-01-20T01:49:16;30.78;;;16.53;;
56680;SDS011;42558;52.388;13.390;2023-01-20T01:52:02;28.12;;;13.68;;
56680;SDS011;42558;52.388;13.390;2023-01-20T01:54:36;30.97;;;15.20;;
56680;SDS011;42558;52.388;13.390;2023-01-20T01:57:11;25.65;;;12.16;;
56680;SDS011;42558;52.388;13.390;2023-01-20T01:59:38;25.46;;;14.25;;
56680;SDS011;42558;52.388;13.390;2023-01-20T02:02:06;28.50;;;11.59;;
56680;SDS011;42558;52.388;13.390;2023-01-20T02:04:36;30.21;;;13.11;;
56680;SDS011;42558;52.388;13.390;2023-01-20T02:07:12;28.88;;;14.63;;
56680;SDS011;42558;52.388;13.390;2023-01-20T02:09:42;30.59;;;13.68;;
56680;SDS011;42558;52.388;13.390;2023-01-20T02:12:17;34.39;;;14.63;;
56680;SDS011;42558;52.388;13.390;2023-01-20T02:14:51;28.88;;;12.35;;
56680;SDS011;42558;52.388;13.390;2023-01-20T02:30:34;34.77;;;15.39;;
56680;SDS011;42558;52.388;13.390;2023-01-20T02:33:40;31.73;;;14.44;;
56680;SDS011;42558;52.388;13.390;2023-01-20T02:42:56;31.16;;;15.20;;
56680;SDS011;42558;52.388;13.390;2023-01-20T02:45:37;30.21;;;13.87;;
56680;SDS011;42558;52.388;13.390;2023-01-20T02:51:08;30.40;;;13.68;;
56680;SDS011;42558;52.388;13.390;2023-01-20T02:54:05;34.58;;;15.39;;
56680;SDS011;42558;52.388;13.390;2023-01-20T02:56:39;25.65;;;14.06;;
56680;SDS011;42558;52.388;13.390;2023-01-20T02:59:24;36.67;;;16.15;;
56680;SDS011;42558;52.388;13.390;2023-01-20T03:02:01;36.29;;;16.34;;
56680;SDS011;42558;52.388;13.390;2023-01-20T03:04:38;34.01;;;15.96;;
56680;SDS011;42558;52.388;13.390;2023-01-20T03:07:22;34.77;;;15.77;;
56680;SDS011;42558;52.388;13.390;2023-01-20T03:09:57;39.14;;;17.48;;
56680;SDS011;42558;52.388;13.390;2023-01-20T03:12:36;32.49;;;15.96;;
56680;SDS011;42558;52.388;13.390;2023-01-20T03:15:11;41.80;;;16.34;;
56680;SDS011;42558;52.388;13.390;2023-01-20T03:17:42;37.62;;;15.96;;
56680;SDS011;42558;52.388;13.390;2023-01-20T03:20:12;33.63;;;16.72;;
56680;SDS011;42558;52.388;13.390;2023-01-20T03:22:42;34.01;;;16.72;;
56680;SDS011;42558;52.388;13.390;2023-01-20T03:25:13;31.92;;;15.58;;
56680;SDS011;42558;52.388;13.390;2023-01-20T03:27:44;33.82;;;16.72;;
56680;SDS011;42558;52.388;13.390;2023-01-20T03:30:15;35.91;;;15.77;;
56680;SDS011;42558;52.388;13.390;2023-01-20T03:32:47;30.78;;;15.58;;
56680;SDS011;42558;52.388;13.390;2023-01-20T03:35:18;30.78;;;15.01;;
56680;SDS011;42558;52.388;13.390;2023-01-20T03:37:48;36.29;;;17.48;;
56680;SDS011;42558;52.388;13.390;2023-01-20T03:40:20;34.96;;;17.48;;
56680;SDS011;42558;52.388;13.390;2023-01-20T03:43:21;38.95;;;16.91;;
56680;SDS011;42558;52.388;13.390;2023-01-20T03:48:40;43.51;;;16.53;;
56680;SDS011;42558;52.388;13.390;2023-01-20T03:51:28;40.66;;;18.24;;
56680;SDS011;42558;52.388;13.390;2023-01-20T03:54:23;33.82;;;15.39;;
56680;SDS011;42558;52.388;13.390;2023-01-20T03:56:59;39.14;;;18.24;;
56680;SDS011;42558;52.388;13.390;2023-01-20T03:59:39;35.34;;;17.48;;
56680;SDS011;42558;52.388;13.390;2023-01-20T04:02:12;33.63;;;18.62;;
56680;SDS011;42558;52.388;13.390;2023-01-20T04:04:43;40.09;;;19.76;;
56680;SDS011;42558;52.388;13.390;2023-01-20T04:07:23;39.52;;;20.14;;
56680;SDS011;42558;52.388;13.390;2023-01-20T04:09:59;36.29;;;19.38;;
56680;SDS011;42558;52.388;13.390;2023-01-20T04:12:34;45.98;;;19.57;;
56680;SDS011;42558;52.388;13.390;2023-01-20T04:15:05;41.42;;;18.62;;
56680;SDS011;42558;52.388;13.390;2023-01-20T04:17:37;41.61;;;19.38;;
56680;SDS011;42558;52.388;13.390;2023-01-20T04:20:09;33.25;;;16.53;;
56680;SDS011;42558;52.388;13.390;2023-01-20T04:22:50;48.45;;;20.33;;
56680;SDS011;42558;52.388;13.390;2023-01-20T04:25:29;38.76;;;19.95;;
56680;SDS011;42558;52.388;13.390;2023-01-20T04:27:59;39.14;;;20.71;;
56680;SDS011;42558;52.388;13.390;2023-01-20T04:30:29;38.00;;;20.14;;
56680;SDS011;42558;52.388;13.390;2023-01-20T04:32:58;45.41;;;23.56;;
56680;SDS011;42558;52.388;13.390;2023-01-20T04:35:26;36.67;;;19.76;;
56680;SDS011;42558;52.388;13.390;2023-01-20T04:37:55;42.37;;;20.90;;
56680;SDS011;42558;52.388;13.390;2023-01-20T04:40:23;47.31;;;22.99;;
56680;SDS011;42558;52.388;13.390;2023-01-20T04:42:51;44.65;;;23.75;;
56680;SDS011;42558;52.388;13.390;2023-01-20T04:45:20;52.63;;;24.51;;
56680;SDS011;42558;52.388;13.390;2023-01-20T04:47:48;42.37;;;20.33;;
56680;SDS011;42558;52.388;13.390;2023-01-20T04:50:17;51.87;;;23.56;;
56680;SDS011;42558;52.388;13.390;2023-01-20T04:52:45;50.35;;;22.61;;
56680;SDS011;42558;52.388;13.390;2023-01-20T04:55:14;48.26;;;22.80;;
56680;SDS011;42558;52.388;13.390;2023-01-20T04:57:42;45.79;;;22.42;;
56680;SDS011;42558;52.388;13.390;2023-01-20T05:00:11;45.41;;;21.47;;
56680;SDS011;42558;52.388;13.390;2023-01-20T05:02:46;43.32;;;20.33;;
56680;SDS011;42558;52.388;13.390;2023-01-20T05:05:17;47.69;;;22.99;;
56680;SDS011;42558;52.388;13.390;2023-01-20T05:07:51;52.82;;;23.56;;
56680;SDS011;42558;52.388;13.390;2023-01-20T05:10:21;45.22;;;22.04;;
56680;SDS011;42558;52.388;13.390;2023-01-20T05:12:51;54.72;;;25.65;;
56680;SDS011;42558;52.388;13.390;2023-01-20T05:15:21;56.24;;;26.98;;
56680;SDS011;42558;52.388;13.390;2023-01-20T05:17:51;50.54;;;24.51;;
56680;SDS011;42558;52.388;13.390;2023-01-20T05:20:20;46.93;;;23.94;;
56680;SDS011;42558;52.388;13.390;2023-01-20T05:22:50;56.24;;;24.51;;
56680;SDS011;42558;52.388;13.390;2023-01-20T05:25:20;53.96;;;25.27;;
56680;SDS011;42558;52.388;13.390;2023-01-20T05:27:50;56.24;;;24.13;;
56680;SDS011;42558;52.388;13.390;2023-01-20T05:30:20;43.13;;;20.71;;
56680;SDS011;42558;52.388;13.390;2023-01-20T05:32:50;53.01;;;23.56;;
56680;SDS011;42558;52.388;13.390;2023-01-20T05:35:20;51.87;;;21.47;;
56680;SDS011;42558;52.388;13.390;2023-01-20T05:37:54;43.13;;;20.33;;
56680;SDS011;42558;52.388;13.390;2023-01-20T05:40:22;42.94;;;21.09;;
56680;SDS011;42558;52.388;13.390;2023-01-20T05:42:50;49.40;;;22.61;;
56680;SDS011;42558;52.388;13.390;2023-01-20T05:45:19;55.29;;;23.56;;
56680;SDS011;42558;52.388;13.390;2023-01-20T05:47:47;45.03;;;21.66;;
56680;SDS011;42558;52.388;13.390;2023-01-20T05:50:23;55.29;;;24.13;;
56680;SDS011;42558;52.388;13.390;2023-01-20T05:52:55;53.01;;;24.89;;
56680;SDS011;42558;52.388;13.390;2023-01-20T05:55:25;51.87;;;24.70;;
56680;SDS011;42558;52.388;13.390;2023-01-20T05:57:54;55.29;;;25.65;;
56680;SDS011;42558;52.388;13.390;2023-01-20T06:00:24;51.30;;;24.51;;
56680;SDS011;42558;52.388;13.390;2023-01-20T06:02:54;51.68;;;25.84;;
56680;SDS011;42558;52.388;13.390;2023-01-20T06:05:25;51.87;;;24.51;;
56680;SDS011;42558;52.388;13.390;2023-01-20T06:07:56;51.11;;;23.75;;
56680;SDS011;42558;52.388;13.390;2023-01-20T06:10:26;54.72;;;24.51;;
56680;SDS011;42558;52.388;13.390;2023-01-20T06:12:56;47.50;;;23.18;;
56680;SDS011;42558;52.388;13.390;2023-01-20T06:15:26;47.12;;;20.71;;
56680;SDS011;42558;52.388;13.390;2023-01-20T06:17:57;48.26;;;22.23;;
56680;SDS011;42558;52.388;13.390;2023-01-20T06:20:27;53.58;;;22.61;;
56680;SDS011;42558;52.388;13.390;2023-01-20T06:22:57;50.54;;;20.90;;
56680;SDS011;42558;52.388;13.390;2023-01-20T06:25:27;51.30;;;24.70;;
56680;SDS011;42558;52.388;13.390;2023-01-20T06:27:58;41.99;;;19.57;;
56680;SDS011;42558;52.388;13.390;2023-01-20T06:30:28;43.70;;;19.57;;
56680;SDS011;42558;52.388;13.390;2023-01-20T06:32:58;51.30;;;22.61;;
56680;SDS011;42558;52.388;13.390;2023-01-20T06:35:28;48.83;;;20.33;;
56680;SDS011;42558;52.388;13.390;2023-01-20T06:37:58;47.31;;;21.09;;
56680;SDS011;42558;52.388;13.390;2023-01-20T06:40:28;53.39;;;25.84;;
56680;SDS011;42558;52.388;13.390;2023-01-20T06:42:58;54.91;;;24.89;;
56680;SDS011;42558;52.388;13.390;2023-01-20T06:45:28;47.50;;;21.47;;
56680;SDS011;42558;52.388;13.390;2023-01-20T06:47:58;46.93;;;19.00;;
56680;SDS011;42558;52.388;13.390;2023-01-20T06:50:28;51.68;;;22.61;;
56680;SDS011;42558;52.388;13.390;2023-01-20T06:52:57;57.76;;;26.98;;
56680;SDS011;42558;52.388;13.390;2023-01-20T06:55:27;49.78;;;23.56;;
56680;SDS011;42558;52.388;13.390;2023-01-20T06:57:57;48.26;;;20.14;;
56680;SDS011;42558;52.388;13.390;2023-01-20T07:00:27;45.60;;;18.62;;
56680;SDS011;42558;52.388;13.390;2023-01-20T07:02:57;54.72;;;23.94;;
56680;SDS011;42558;52.388;13.390;2023-01-20T07:05:27;49.21;;;22.61;;
56680;SDS011;42558;52.388;13.390;2023-01-20T07:07:55;52.44;;;23.18;;
56680;SDS011;42558;52.388;13.390;2023-01-20T07:10:24;42.75;;;19.19;;
56680;SDS011;42558;52.388;13.390;2023-01-20T07:12:52;49.78;;;23.37;;
56680;SDS011;42558;52.388;13.390;2023-01-20T07:15:21;55.86;;;24.51;;
56680;SDS011;42558;52.388;13.390;2023-01-20T07:17:49;58.33;;;24.13;;
56680;SDS011;42558;52.388;13.390;2023-01-20T07:20:18;51.49;;;22.42;;
56680;SDS011;42558;52.388;13.390;2023-01-20T07:22:46;50.73;;;23.37;;
56680;SDS011;42558;52.388;13.390;2023-01-20T07:25:15;61.75;;;24.51;;
56680;SDS011;42558;52.388;13.390;2023-01-20T07:27:43;51.87;;;23.37;;
56680;SDS011;42558;52.388;13.390;2023-01-20T07:30:12;60.42;;;27.36;;
56680;SDS011;42558;52.388;13.390;2023-01-20T07:32:40;53.77;;;23.75;;
56680;SDS011;42558;52.388;13.390;2023-01-20T07:35:09;56.05;;;24.13;;
56680;SDS011;42558;52.388;13.390;2023-01-20T07:37:37;51.68;;;22.99;;
56680;SDS011;42558;52.388;13.390;2023-01-20T07:40:06;63.84;;;27.55;;
56680;SDS011;42558;52.388;13.390;2023-01-20T07:42:37;53.58;;;24.89;;
56680;SDS011;42558;52.388;13.390;2023-01-20T07:45:06;61.94;;;26.03;;
56680;SDS011;42558;52.388;13.390;2023-01-20T07:47:34;58.71;;;25.65;;
56680;SDS011;42558;52.388;13.390;2023-01-20T07:50:03;60.42;;;24.32;;
56680;SDS011;42558;52.388;13.390;2023-01-20T07:52:31;50.35;;;22.42;;
56680;SDS011;42558;52.388;13.390;2023-01-20T07:54:59;52.82;;;24.13;;
56680;SDS011;42558;52.388;13.390;2023-01-20T07:57:28;53.96;;;25.27;;
56680;SDS011;42558;52.388;13.390;2023-01-20T07:59:56;56.43;;;23.18;;
56680;SDS011;42558;52.388;13.390;2023-01-20T08:02:25;58.90;;;22.61;;
56680;SDS011;42558;52.388;13.390;2023-01-20T08:04:53;66.31;;;26.79;;
56680;SDS011;42558;52.388;13.390;2023-01-20T08:07:22;62.51;;;26.41;;
56680;SDS011;42558;52.388;13.390;2023-01-20T08:09:50;53.77;;;24.13;;
56680;SDS011;42558;52.388;13.390;2023-01-20T08:12:19;60.80;;;24.89;;
56680;SDS011;42558;52.388;13.390;2023-01-20T08:14:47;68.40;;;28.12;;
56680;SDS011;42558;52.388;13.390;2023-01-20T08:17:16;66.12;;;25.65;;
56680;SDS011;42558;52.388;13.390;2023-01-20T08:19:44;65.93;;;27.17;;
56680;SDS011;42558;52.388;13.390;2023-01-20T08:22:13;67.45;;;28.88;;
56680;SDS011;42558;52.388;13.390;2023-01-20T08:24:41;59.47;;;25.65;;
56680;SDS011;42558;52.388;13.390;2023-01-20T08:27:09;66.31;;;27.93;;
56680;SDS011;42558;52.388;13.390;2023-01-20T08:29:38;64.41;;;27.93;;
56680;SDS011;42558;52.388;13.390;2023-01-20T08:32:06;64.03;;;26.60;;
56680;SDS011;42558;52.388;13.390;2023-01-20T08:34:35;64.79;;;26.22;;
56680;SDS011;42558;52.388;13.390;2023-01-20T08:37:03;55.10;;;25.65;;
56680;SDS011;42558;52.388;13.390;2023-01-20T08:39:32;48.64;;;22.99;;
56680;SDS011;42558;52.388;13.390;2023-01-20T08:42:00;66.12;;;25.65;;
56680;SDS011;42558;52.388;13.390;2023-01-20T08:44:29;53.58;;;22.23;;
56680;SDS011;42558;52.388;13.390;2023-01-20T08:46:57;64.03;;;29.45;;
56680;SDS011;42558;52.388;13.390;2023-01-20T08:49:25;68.40;;;26.41;;
56680;SDS011;42558;52.388;13.390;2023-01-20T08:51:55;67.45;;;26.98;;
56680;SDS011;42558;52.388;13.390;2023-01-20T08:54:25;65.93;;;26.79;;
56680;SDS011;42558;52.388;13.390;2023-01-20T08:56:57;51.87;;;22.23;;
56680;SDS011;42558;52.388;13.390;2023-01-20T08:59:27;60.61;;;25.65;;
56680;SDS011;42558;52.388;13.390;2023-01-20T09:01:57;71.44;;;28.31;;
56680;SDS011;42558;52.388;13.390;2023-01-20T09:04:27;52.44;;;21.09;;
56680;SDS011;42558;52.388;13.390;2023-01-20T09:06:56;58.90;;;21.85;;
56680;SDS011;42558;52.388;13.390;2023-01-20T09:09:26;52.44;;;23.56;;
56680;SDS011;42558;52.388;13.390;2023-01-20T09:11:56;60.23;;;26.60;;
56680;SDS011;42558;52.388;13.390;2023-01-20T09:14:26;66.50;;;26.22;;
56680;SDS011;42558;52.388;13.390;2023-01-20T09:16:53;56.43;;;24.32;;
56680;SDS011;42558;52.388;13.390;2023-01-20T09:19:20;65.17;;;28.12;;
56680;SDS011;42558;52.388;13.390;2023-01-20T09:21:50;59.66;;;24.13;;
56680;SDS011;42558;52.388;13.390;2023-01-20T09:24:20;63.84;;;28.12;;
56680;SDS011;42558;52.388;13.390;2023-01-20T09:26:50;60.04;;;25.46;;
56680;SDS011;42558;52.388;13.390;2023-01-20T09:29:21;57.57;;;24.89;;
56680;SDS011;42558;52.388;13.390;2023-01-20T09:31:53;63.46;;;27.74;;
56680;SDS011;42558;52.388;13.390;2023-01-20T09:34:27;67.07;;;26.60;;
56680;SDS011;42558;52.388;13.390;2023-01-20T09:36:59;66.31;;;26.60;;
56680;SDS011;42558;52.388;13.390;2023-01-20T09:39:48;57.57;;;23.94;;
56680;SDS011;42558;52.388;13.390;2023-01-20T09:46:12;54.34;;;24.70;;
56680;SDS011;42558;52.388;13.390;2023-01-20T09:49:26;53.01;;;22.80;;
56680;SDS011;42558;52.388;13.390;2023-01-20T09:52:28;57.95;;;26.41;;
56680;SDS011;42558;52.388;13.390;2023-01-20T09:55:28;58.71;;;26.41;;
56680;SDS011;42558;52.388;13.390;2023-01-20T09:58:43;64.79;;;27.17;;
56680;SDS011;42558;52.388;13.390;2023-01-20T10:04:19;61.37;;;27.17;;
56680;SDS011;42558;52.388;13.390;2023-01-20T10:07:23;46.36;;;20.52;;
56680;SDS011;42558;52.388;13.390;2023-01-20T10:10:05;50.35;;;22.99;;
56680;SDS011;42558;52.388;13.390;2023-01-20T10:15:47;61.18;;;26.60;;
56680;SDS011;42558;52.388;13.390;2023-01-20T10:18:42;52.25;;;22.61;;
56680;SDS011;42558;52.388;13.390;2023-01-20T10:21:19;52.82;;;21.85;;
56680;SDS011;42558;52.388;13.390;2023-01-20T10:24:06;60.23;;;25.27;;
56680;SDS011;42558;52.388;13.390;2023-01-20T10:26:52;67.64;;;26.41;;
56680;SDS011;42558;52.388;13.390;2023-01-20T10:29:36;58.14;;;25.46;;
56680;SDS011;42558;52.388;13.390;2023-01-20T10:32:15;55.29;;;24.89;;
56680;SDS011;42558;52.388;13.390;2023-01-20T10:35:21;63.84;;;27.17;;
56680;SDS011;42558;52.388;13.390;2023-01-20T10:37:55;53.77;;;24.51;;
56680;SDS011;42558;52.388;13.390;2023-01-20T10:40:35;57.19;;;24.70;;
56680;SDS011;42558;52.388;13.390;2023-01-20T10:43:15;57.00;;;26.60;;
56680;SDS011;42558;52.388;13.390;2023-01-20T10:48:40;56.62;;;24.70;;
56680;SDS011;42558;52.388;13.390;2023-01-20T10:52:17;65.17;;;26.98;;
56680;SDS011;42558;52.388;13.390;2023-01-20T10:58:15;60.04;;;26.03;;
56680;SDS011;42558;52.388;13.390;2023-01-20T11:00:51;63.65;;;26.41;;
56680;SDS011;42558;52.388;13.390;2023-01-20T11:03:22;57.57;;;24.32;;
56680;SDS011;42558;52.388;13.390;2023-01-20T11:05:53;57.38;;;25.46;;
56680;SDS011;42558;52.388;13.390;2023-01-20T11:08:27;60.23;;;26.41;;
56680;SDS011;42558;52.388;13.390;2023-01-20T11:10:59;51.11;;;23.75;;
56680;SDS011;42558;52.388;13.390;2023-01-20T11:13:38;56.24;;;24.70;;
56680;SDS011;42558;52.388;13.390;2023-01-20T11:16:23;52.63;;;25.84;;
56680;SDS011;42558;52.388;13.390;2023-01-20T11:18:58;60.99;;;26.22;;
56680;SDS011;42558;52.388;13.390;2023-01-20T11:21:35;52.06;;;22.61;;
56680;SDS011;42558;52.388;13.390;2023-01-20T11:24:22;51.30;;;23.75;;
56680;SDS011;42558;52.388;13.390;2023-01-20T11:27:06;51.49;;;24.32;;
56680;SDS011;42558;52.388;13.390;2023-01-20T11:30:03;50.54;;;23.56;;
56680;SDS011;42558;52.388;13.390;2023-01-20T11:32:37;55.10;;;23.75;;
56680;SDS011;42558;52.388;13.390;2023-01-20T11:35:24;55.67;;;24.89;;
56680;SDS011;42558;52.388;13.390;2023-01-20T11:37:53;56.43;;;27.17;;
56680;SDS011;42558;52.388;13.390;2023-01-20T11:40:26;59.85;;;25.08;;
56680;SDS011;42558;52.388;13.390;2023-01-20T11:42:56;54.91;;;24.70;;
56680;SDS011;42558;52.388;13.390;2023-01-20T11:45:34;57.57;;;26.03;;
56680;SDS011;42558;52.388;13.390;2023-01-20T11:48:16;58.33;;;25.46;;
56680;SDS011;42558;52.388;13.390;2023-01-20T11:50:53;49.97;;;24.51;;
56680;SDS011;42558;52.388;13.390;2023-01-20T11:53:30;55.86;;;26.22;;
56680;SDS011;42558;52.388;13.390;2023-01-20T11:56:02;50.73;;;23.18;;
56680;SDS011;42558;52.388;13.390;2023-01-20T11:58:48;53.58;;;24.70;;
56680;SDS011;42558;52.388;13.390;2023-01-20T12:01:24;50.35;;;25.65;;
56680;SDS011;42558;52.388;13.390;2023-01-20T12:06:48;55.86;;;25.84;;
56680;SDS011;42558;52.388;13.390;2023-01-20T12:09:28;51.68;;;23.94;;
56680;SDS011;42558;52.388;13.390;2023-01-20T12:15:08;54.15;;;24.70;;
56680;SDS011;42558;52.388;13.390;2023-01-20T12:17:55;60.42;;;26.79;;
56680;SDS011;42558;52.388;13.390;2023-01-20T12:20:35;56.43;;;27.17;;
56680;SDS011;42558;52.388;13.390;2023-01-20T12:26:40;52.82;;;25.65;;
56680;SDS011;42558;52.388;13.390;2023-01-20T12:29:35;56.81;;;25.46;;
56680;SDS011;42558;52.388;13.390;2023-01-20T12:32:07;46.55;;;22.61;;
56680;SDS011;42558;52.388;13.390;2023-01-20T12:34:37;55.48;;;25.65;;
56680;SDS011;42558;52.388;13.390;2023-01-20T12:37:16;40.85;;;20.52;;
56680;SDS011;42558;52.388;13.390;2023-01-20T12:49:01;45.41;;;21.28;;
56680;SDS011;42558;52.388;13.390;2023-01-20T13:04:43;58.71;;;25.46;;
56680;SDS011;42558;52.388;13.390;2023-01-20T13:16:39;50.35;;;23.37;;
56680;SDS011;42558;52.388;13.390;2023-01-20T13:19:31;56.05;;;25.08;;
56680;SDS011;42558;52.388;13.390;2023-01-20T13:22:12;45.60;;;22.04;;
56680;SDS011;42558;52.388;13.390;2023-01-20T13:24:50;51.68;;;24.51;;
56680;SDS011;42558;52.388;13.390;2023-01-20T13:27:32;48.64;;;21.09;;
56680;SDS011;42558;52.388;13.390;2023-01-20T13:30:05;49.78;;;23.94;;
56680;SDS011;42558;52.388;13.390;2023-01-20T13:32:43;53.96;;;25.65;;
56680;SDS011;42558;52.388;13.390;2023-01-20T13:37:58;57.95;;;26.98;;
56680;SDS011;42558;52.388;13.390;2023-01-20T13:43:36;45.03;;;23.75;;
56680;SDS011;42558;52.388;13.390;2023-01-20T13:49:11;52.25;;;23.94;;
56680;SDS011;42558;52.388;13.390;2023-01-20T13:51:51;57.76;;;25.46;;
56680;SDS011;42558;52.388;13.390;2023-01-20T13:59:51;53.39;;;24.70;;
56680;SDS011;42558;52.388;13.390;2023-01-20T14:02:23;54.72;;;24.51;;
56680;SDS011;42558;52.388;13.390;2023-01-20T14:04:57;53.77;;;25.65;;
56680;SDS011;42558;52.388;13.390;2023-01-20T14:07:29;46.55;;;20.71;;
56680;SDS011;42558;52.388;13.390;2023-01-20T14:10:00;50.35;;;22.42;;
56680;SDS011;42558;52.388;13.390;2023-01-20T14:12:27;58.90;;;26.98;;
56680;SDS011;42558;52.388;13.390;2023-01-20T14:14:57;50.35;;;23.56;;
56680;SDS011;42558;52.388;13.390;2023-01-20T14:17:27;45.79;;;22.42;;
56680;SDS011;42558;52.388;13.390;2023-01-20T14:19:57;51.11;;;25.08;;
56680;SDS011;42558;52.388;13.390;2023-01-20T14:22:29;53.96;;;26.03;;
56680;SDS011;42558;52.388;13.390;2023-01-20T14:24:59;56.81;;;24.89;;
56680;SDS011;42558;52.388;13.390;2023-01-20T14:27:32;54.91;;;26.22;;
56680;SDS011;42558;52.388;13.390;2023-01-20T14:30:23;53.01;;;25.84;;
56680;SDS011;42558;52.388;13.390;2023-01-20T14:32:54;44.46;;;22.99;;
56680;SDS011;42558;52.388;13.390;2023-01-20T14:35:30;49.97;;;25.08;;
56680;SDS011;42558;52.388;13.390;2023-01-20T14:38:02;52.82;;;24.89;;
56680;SDS011;42558;52.388;13.390;2023-01-20T14:40:32;49.78;;;22.42;;
56680;SDS011;42558;52.388;13.390;2023-01-20T14:43:20;56.81;;;24.51;;
56680;SDS011;42558;52.388;13.390;2023-01-20T14:45:51;51.11;;;25.65;;
56680;SDS011;42558;52.388;13.390;2023-01-20T14:48:22;55.48;;;26.98;;
56680;SDS011;42558;52.388;13.390;2023-01-20T14:51:03;57.95;;;27.36;;
56680;SDS011;42558;52.388;13.390;2023-01-20T14:53:34;48.07;;;25.46;;
56680;SDS011;42558;52.388;13.390;2023-01-20T14:56:07;54.72;;;25.46;;
56680;SDS011;42558;52.388;13.390;2023-01-20T14:58:48;53.20;;;25.65;;
56680;SDS011;42558;52.388;13.390;2023-01-20T15:01:24;51.68;;;24.89;;
56680;SDS011;42558;52.388;13.390;2023-01-20T15:03:59;59.28;;;24.70;;
56680;SDS011;42558;52.388;13.390;2023-01-20T15:06:31;60.61;;;25.65;;
56680;SDS011;42558;52.388;13.390;2023-01-20T15:09:01;52.25;;;25.08;;
56680;SDS011;42558;52.388;13.390;2023-01-20T15:11:36;49.97;;;25.27;;
56680;SDS011;42558;52.388;13.390;2023-01-20T15:14:07;57.95;;;24.51;;
56680;SDS011;42558;52.388;13.390;2023-01-20T15:21:49;60.04;;;25.65;;
56680;SDS011;42558;52.388;13.390;2023-01-20T15:24:29;55.48;;;25.65;;
56680;SDS011;42558;52.388;13.390;2023-01-20T15:27:00;52.82;;;25.46;;
56680;SDS011;42558;52.388;13.390;2023-01-20T15:29:33;57.00;;;24.13;;
56680;SDS011;42558;52.388;13.390;2023-01-20T15:32:10;52.82;;;25.46;;
56680;SDS011;42558;52.388;13.390;2023-01-20T15:34:40;47.50;;;24.70;;
56680;SDS011;42558;52.388;13.390;2023-01-20T15:37:16;54.53;;;26.03;;
56680;SDS011;42558;52.388;13.390;2023-01-20T15:39:47;45.41;;;24.32;;
56680;SDS011;42558;52.388;13.390;2023-01-20T15:42:17;54.91;;;25.27;;
56680;SDS011;42558;52.388;13.390;2023-01-20T15:44:45;53.58;;;24.32;;
56680;SDS011;42558;52.388;13.390;2023-01-20T15:47:18;59.66;;;24.89;;
56680;SDS011;42558;52.388;13.390;2023-01-20T15:49:54;53.39;;;25.27;;
56680;SDS011;42558;52.388;13.390;2023-01-20T15:52:24;58.14;;;27.74;;
56680;SDS011;42558;52.388;13.390;2023-01-20T15:54:53;60.61;;;27.74;;
56680;SDS011;42558;52.388;13.390;2023-01-20T15:57:23;52.25;;;24.13;;
56680;SDS011;42558;52.388;13.390;2023-01-20T15:59:53;55.29;;;25.46;;
56680;SDS011;42558;52.388;13.390;2023-01-20T16:02:23;52.44;;;25.08;;
56680;SDS011;42558;52.388;13.390;2023-01-20T16:04:53;52.06;;;25.46;;
56680;SDS011;42558;52.388;13.390;2023-01-20T16:07:23;47.88;;;24.32;;
56680;SDS011;42558;52.388;13.390;2023-01-20T16:09:53;55.86;;;26.22;;
56680;SDS011;42558;52.388;13.390;2023-01-20T16:12:23;51.49;;;23.94;;
56680;SDS011;42558;52.388;13.390;2023-01-20T16:14:53;51.68;;;25.46;;
56680;SDS011;42558;52.388;13.390;2023-01-20T16:17:24;48.83;;;25.08;;
56680;SDS011;42558;52.388;13.390;2023-01-20T16:19:58;44.46;;;23.37;;
56680;SDS011;42558;52.388;13.390;2023-01-20T16:22:28;47.12;;;22.99;;
56680;SDS011;42558;52.388;13.390;2023-01-20T16:24:58;46.17;;;22.61;;
56680;SDS011;42558;52.388;13.390;2023-01-20T16:27:28;52.82;;;23.37;;